sensor_id;sensor_type;location;lat;lon;timestamp;P1;durP1;ratioP1;P2;durP2;ratioP2
67063;SDS011;58476;48.072;11.970;2022-09-21T00:00:32;3.65;;;1.10;;
67063;SDS011;58476;48.072;11.970;2022-09-21T00:02:58;1.75;;;1.10;;
67063;SDS011;58476;48.072;11.970;2022-09-21T00:05:23;1.58;;;0.90;;
67063;SDS011;58476;48.072;11.970;2022-09-21T00:07:49;1.77;;;0.90;;
67063;SDS011;58476;48.072;11.970;2022-09-21T00:10:15;0.90;;;0.90;;
67063;SDS011;58476;48.072;11.970;2022-09-21T00:12:40;0.80;;;0.80;;
67063;SDS011;58476;48.072;11.970;2022-09-21T00:15:08;1.67;;;0.70;;
67063;SDS011;58476;48.072;11.970;2022-09-21T00:17:35;1.00;;;1.00;;
67063;SDS011;58476;48.072;11.970;2022-09-21T00:20:02;0.80;;;0.80;;
67063;SDS011;58476;48.072;11.970;2022-09-21T00:22:28;0.90;;;0.90;;
67063;SDS011;58476;48.072;11.970;2022-09-21T00:24:54;1.10;;;1.00;;
67063;SDS011;58476;48.072;11.970;2022-09-21T00:27:19;1.17;;;1.00;;
67063;SDS011;58476;48.072;11.970;2022-09-21T00:29:44;1.00;;;0.93;;
67063;SDS011;58476;48.072;11.970;2022-09-21T00:32:10;1.20;;;1.10;;
67063;SDS011;58476;48.072;11.970;2022-09-21T00:34:35;0.80;;;0.80;;
67063;SDS011;58476;48.072;11.970;2022-09-21T00:37:00;1.38;;;1.20;;
67063;SDS011;58476;48.072;11.970;2022-09-21T00:39:26;1.77;;;1.00;;
67063;SDS011;58476;48.072;11.970;2022-09-21T00:41:51;3.17;;;1.00;;
67063;SDS011;58476;48.072;11.970;2022-09-21T00:46:57;1.30;;;0.80;;
67063;SDS011;58476;48.072;11.970;2022-09-21T00:49:26;0.90;;;0.90;;
67063;SDS011;58476;48.072;11.970;2022-09-21T00:51:52;0.75;;;0.75;;
67063;SDS011;58476;48.072;11.970;2022-09-21T00:54:21;1.00;;;1.00;;
67063;SDS011;58476;48.072;11.970;2022-09-21T00:56:52;2.28;;;1.00;;
67063;SDS011;58476;48.072;11.970;2022-09-21T00:59:19;1.33;;;1.02;;
67063;SDS011;58476;48.072;11.970;2022-09-21T01:01:47;1.45;;;1.05;;
67063;SDS011;58476;48.072;11.970;2022-09-21T01:04:12;0.90;;;0.90;;
67063;SDS011;58476;48.072;11.970;2022-09-21T01:06:39;0.80;;;0.80;;
67063;SDS011;58476;48.072;11.970;2022-09-21T01:09:05;0.95;;;0.90;;
67063;SDS011;58476;48.072;11.970;2022-09-21T01:16:55;2.45;;;0.95;;
67063;SDS011;58476;48.072;11.970;2022-09-21T01:22:41;1.47;;;0.83;;
67063;SDS011;58476;48.072;11.970;2022-09-21T01:25:37;0.82;;;0.82;;
67063;SDS011;58476;48.072;11.970;2022-09-21T01:31:20;0.70;;;0.70;;
67063;SDS011;58476;48.072;11.970;2022-09-21T01:33:53;0.80;;;0.80;;
67063;SDS011;58476;48.072;11.970;2022-09-21T01:36:23;0.90;;;0.90;;
67063;SDS011;58476;48.072;11.970;2022-09-21T01:38:52;1.48;;;1.00;;
67063;SDS011;58476;48.072;11.970;2022-09-21T01:41:21;1.15;;;1.05;;
67063;SDS011;58476;48.072;11.970;2022-09-21T01:43:50;0.80;;;0.80;;
67063;SDS011;58476;48.072;11.970;2022-09-21T01:46:20;1.20;;;0.88;;
67063;SDS011;58476;48.072;11.970;2022-09-21T01:48:47;1.00;;;1.00;;
67063;SDS011;58476;48.072;11.970;2022-09-21T01:51:16;0.82;;;0.82;;
67063;SDS011;58476;48.072;11.970;2022-09-21T01:53:45;1.45;;;0.90;;
67063;SDS011;58476;48.072;11.970;2022-09-21T02:01:42;0.77;;;0.77;;
67063;SDS011;58476;48.072;11.970;2022-09-21T02:04:12;2.22;;;1.00;;
67063;SDS011;58476;48.072;11.970;2022-09-21T02:06:39;0.70;;;0.70;;
67063;SDS011;58476;48.072;11.970;2022-09-21T02:09:06;0.80;;;0.80;;
67063;SDS011;58476;48.072;11.970;2022-09-21T02:11:33;1.08;;;0.98;;
67063;SDS011;58476;48.072;11.970;2022-09-21T02:13:59;1.17;;;1.08;;
67063;SDS011;58476;48.072;11.970;2022-09-21T02:16:33;0.90;;;0.90;;
67063;SDS011;58476;48.072;11.970;2022-09-21T02:19:14;3.90;;;2.45;;
67063;SDS011;58476;48.072;11.970;2022-09-21T02:24:42;0.90;;;0.90;;
67063;SDS011;58476;48.072;11.970;2022-09-21T02:43:11;0.80;;;0.80;;
67063;SDS011;58476;48.072;11.970;2022-09-21T02:45:45;0.95;;;0.80;;
67063;SDS011;58476;48.072;11.970;2022-09-21T02:48:17;0.80;;;0.80;;
67063;SDS011;58476;48.072;11.970;2022-09-21T02:50:52;0.90;;;0.90;;
67063;SDS011;58476;48.072;11.970;2022-09-21T02:53:24;0.85;;;0.85;;
67063;SDS011;58476;48.072;11.970;2022-09-21T02:55:54;0.93;;;0.93;;
67063;SDS011;58476;48.072;11.970;2022-09-21T02:58:21;0.90;;;0.90;;
67063;SDS011;58476;48.072;11.970;2022-09-21T03:00:50;0.75;;;0.75;;
67063;SDS011;58476;48.072;11.970;2022-09-21T03:05:42;0.80;;;0.80;;
67063;SDS011;58476;48.072;11.970;2022-09-21T03:08:09;2.28;;;1.00;;
67063;SDS011;58476;48.072;11.970;2022-09-21T03:10:35;1.13;;;1.00;;
67063;SDS011;58476;48.072;11.970;2022-09-21T03:13:00;0.77;;;0.77;;
67063;SDS011;58476;48.072;11.970;2022-09-21T03:15:25;0.82;;;0.82;;
67063;SDS011;58476;48.072;11.970;2022-09-21T03:17:50;1.13;;;0.93;;
67063;SDS011;58476;48.072;11.970;2022-09-21T03:20:16;0.85;;;0.80;;
67063;SDS011;58476;48.072;11.970;2022-09-21T03:22:41;0.80;;;0.80;;
67063;SDS011;58476;48.072;11.970;2022-09-21T03:25:06;1.85;;;1.20;;
67063;SDS011;58476;48.072;11.970;2022-09-21T03:27:32;1.00;;;0.90;;
67063;SDS011;58476;48.072;11.970;2022-09-21T03:29:58;0.82;;;0.82;;
67063;SDS011;58476;48.072;11.970;2022-09-21T03:32:23;1.15;;;1.00;;
67063;SDS011;58476;48.072;11.970;2022-09-21T03:34:49;1.10;;;1.00;;
67063;SDS011;58476;48.072;11.970;2022-09-21T03:37:14;1.13;;;0.98;;
67063;SDS011;58476;48.072;11.970;2022-09-21T03:39:39;0.70;;;0.70;;
67063;SDS011;58476;48.072;11.970;2022-09-21T03:42:05;2.28;;;1.00;;
67063;SDS011;58476;48.072;11.970;2022-09-21T03:44:30;1.05;;;0.95;;
67063;SDS011;58476;48.072;11.970;2022-09-21T03:46:55;1.65;;;0.80;;
67063;SDS011;58476;48.072;11.970;2022-09-21T03:49:21;1.08;;;0.82;;
67063;SDS011;58476;48.072;11.970;2022-09-21T03:51:46;0.80;;;0.80;;
67063;SDS011;58476;48.072;11.970;2022-09-21T03:54:11;1.42;;;1.00;;
67063;SDS011;58476;48.072;11.970;2022-09-21T03:56:37;0.80;;;0.80;;
67063;SDS011;58476;48.072;11.970;2022-09-21T03:59:02;1.00;;;0.90;;
67063;SDS011;58476;48.072;11.970;2022-09-21T04:01:27;0.90;;;0.90;;
67063;SDS011;58476;48.072;11.970;2022-09-21T04:03:53;0.80;;;0.80;;
67063;SDS011;58476;48.072;11.970;2022-09-21T04:06:18;1.75;;;0.82;;
67063;SDS011;58476;48.072;11.970;2022-09-21T04:08:44;0.93;;;0.93;;
67063;SDS011;58476;48.072;11.970;2022-09-21T04:11:10;1.40;;;0.90;;
67063;SDS011;58476;48.072;11.970;2022-09-21T04:13:37;1.15;;;0.90;;
67063;SDS011;58476;48.072;11.970;2022-09-21T04:16:02;1.10;;;1.00;;
67063;SDS011;58476;48.072;11.970;2022-09-21T04:18:28;1.58;;;1.00;;
67063;SDS011;58476;48.072;11.970;2022-09-21T04:20:53;1.60;;;0.90;;
67063;SDS011;58476;48.072;11.970;2022-09-21T04:23:19;0.80;;;0.80;;
67063;SDS011;58476;48.072;11.970;2022-09-21T04:25:44;1.10;;;1.00;;
67063;SDS011;58476;48.072;11.970;2022-09-21T04:28:12;5.45;;;0.90;;
67063;SDS011;58476;48.072;11.970;2022-09-21T04:30:38;1.10;;;0.75;;
67063;SDS011;58476;48.072;11.970;2022-09-21T04:33:03;1.95;;;1.10;;
67063;SDS011;58476;48.072;11.970;2022-09-21T04:35:29;5.10;;;1.05;;
67063;SDS011;58476;48.072;11.970;2022-09-21T04:37:54;0.82;;;0.82;;
67063;SDS011;58476;48.072;11.970;2022-09-21T04:40:19;3.10;;;1.10;;
67063;SDS011;58476;48.072;11.970;2022-09-21T04:42:49;4.60;;;1.15;;
67063;SDS011;58476;48.072;11.970;2022-09-21T04:47:41;3.30;;;1.20;;
67063;SDS011;58476;48.072;11.970;2022-09-21T04:50:06;2.80;;;1.10;;
67063;SDS011;58476;48.072;11.970;2022-09-21T04:52:32;1.92;;;1.00;;
67063;SDS011;58476;48.072;11.970;2022-09-21T04:54:57;5.35;;;1.05;;
67063;SDS011;58476;48.072;11.970;2022-09-21T04:57:22;3.58;;;1.30;;
67063;SDS011;58476;48.072;11.970;2022-09-21T04:59:48;1.27;;;0.95;;
67063;SDS011;58476;48.072;11.970;2022-09-21T05:02:13;2.88;;;1.00;;
67063;SDS011;58476;48.072;11.970;2022-09-21T05:04:38;1.75;;;1.00;;
67063;SDS011;58476;48.072;11.970;2022-09-21T05:07:04;1.20;;;1.00;;
67063;SDS011;58476;48.072;11.970;2022-09-21T05:09:29;1.83;;;1.10;;
67063;SDS011;58476;48.072;11.970;2022-09-21T05:11:54;4.00;;;1.20;;
67063;SDS011;58476;48.072;11.970;2022-09-21T05:14:20;4.97;;;1.25;;
67063;SDS011;58476;48.072;11.970;2022-09-21T05:16:45;1.35;;;1.17;;
67063;SDS011;58476;48.072;11.970;2022-09-21T05:19:10;4.72;;;1.13;;
67063;SDS011;58476;48.072;11.970;2022-09-21T05:21:35;7.40;;;1.60;;
67063;SDS011;58476;48.072;11.970;2022-09-21T05:24:01;3.05;;;1.15;;
67063;SDS011;58476;48.072;11.970;2022-09-21T05:26:26;3.33;;;1.17;;
67063;SDS011;58476;48.072;11.970;2022-09-21T05:28:52;7.32;;;1.30;;
67063;SDS011;58476;48.072;11.970;2022-09-21T05:31:24;5.20;;;1.20;;
67063;SDS011;58476;48.072;11.970;2022-09-21T05:34:09;6.57;;;1.30;;
67063;SDS011;58476;48.072;11.970;2022-09-21T05:39:41;11.60;;;2.47;;
67063;SDS011;58476;48.072;11.970;2022-09-21T05:42:07;3.05;;;1.10;;
67063;SDS011;58476;48.072;11.970;2022-09-21T05:44:34;8.57;;;1.05;;
67063;SDS011;58476;48.072;11.970;2022-09-21T05:47:04;1.92;;;1.17;;
67063;SDS011;58476;48.072;11.970;2022-09-21T05:52:37;4.60;;;1.63;;
67063;SDS011;58476;48.072;11.970;2022-09-21T06:01:08;10.55;;;1.40;;
67063;SDS011;58476;48.072;11.970;2022-09-21T06:03:33;6.25;;;1.60;;
67063;SDS011;58476;48.072;11.970;2022-09-21T06:05:59;5.18;;;1.10;;
67063;SDS011;58476;48.072;11.970;2022-09-21T06:08:24;7.97;;;1.60;;
67063;SDS011;58476;48.072;11.970;2022-09-21T06:10:50;5.70;;;1.20;;
67063;SDS011;58476;48.072;11.970;2022-09-21T06:13:16;2.45;;;1.40;;
67063;SDS011;58476;48.072;11.970;2022-09-21T06:15:42;9.02;;;1.35;;
67063;SDS011;58476;48.072;11.970;2022-09-21T06:18:07;6.63;;;1.30;;
67063;SDS011;58476;48.072;11.970;2022-09-21T06:20:34;20.75;;;1.67;;
67063;SDS011;58476;48.072;11.970;2022-09-21T06:23:06;5.65;;;1.30;;
67063;SDS011;58476;48.072;11.970;2022-09-21T06:25:33;5.57;;;1.23;;
67063;SDS011;58476;48.072;11.970;2022-09-21T06:28:05;6.47;;;1.50;;
67063;SDS011;58476;48.072;11.970;2022-09-21T06:30:33;7.82;;;1.38;;
67063;SDS011;58476;48.072;11.970;2022-09-21T06:32:59;6.43;;;1.13;;
67063;SDS011;58476;48.072;11.970;2022-09-21T06:35:26;4.60;;;1.27;;
67063;SDS011;58476;48.072;11.970;2022-09-21T06:37:55;3.15;;;1.35;;
67063;SDS011;58476;48.072;11.970;2022-09-21T06:40:21;8.40;;;1.20;;
67063;SDS011;58476;48.072;11.970;2022-09-21T06:42:47;17.25;;;1.58;;
67063;SDS011;58476;48.072;11.970;2022-09-21T06:45:12;7.05;;;1.40;;
67063;SDS011;58476;48.072;11.970;2022-09-21T06:47:37;7.47;;;1.50;;
67063;SDS011;58476;48.072;11.970;2022-09-21T06:50:03;2.78;;;1.45;;
67063;SDS011;58476;48.072;11.970;2022-09-21T06:52:28;5.15;;;2.35;;
67063;SDS011;58476;48.072;11.970;2022-09-21T06:54:54;6.97;;;1.27;;
67063;SDS011;58476;48.072;11.970;2022-09-21T06:57:19;7.60;;;1.70;;
67063;SDS011;58476;48.072;11.970;2022-09-21T06:59:44;10.80;;;1.45;;
67063;SDS011;58476;48.072;11.970;2022-09-21T07:02:10;3.42;;;1.30;;
67063;SDS011;58476;48.072;11.970;2022-09-21T07:04:35;5.65;;;1.30;;
67063;SDS011;58476;48.072;11.970;2022-09-21T07:07:00;9.32;;;1.60;;
67063;SDS011;58476;48.072;11.970;2022-09-21T07:09:25;7.28;;;1.40;;
67063;SDS011;58476;48.072;11.970;2022-09-21T07:11:52;7.47;;;1.10;;
67063;SDS011;58476;48.072;11.970;2022-09-21T07:14:17;6.47;;;1.23;;
67063;SDS011;58476;48.072;11.970;2022-09-21T07:16:42;4.72;;;1.30;;
67063;SDS011;58476;48.072;11.970;2022-09-21T07:19:08;5.32;;;1.20;;
67063;SDS011;58476;48.072;11.970;2022-09-21T07:21:33;2.83;;;1.13;;
67063;SDS011;58476;48.072;11.970;2022-09-21T07:23:58;5.15;;;1.48;;
67063;SDS011;58476;48.072;11.970;2022-09-21T07:26:24;6.15;;;1.20;;
67063;SDS011;58476;48.072;11.970;2022-09-21T07:28:49;9.32;;;1.30;;
67063;SDS011;58476;48.072;11.970;2022-09-21T07:31:15;3.67;;;1.20;;
67063;SDS011;58476;48.072;11.970;2022-09-21T07:33:41;7.50;;;1.33;;
67063;SDS011;58476;48.072;11.970;2022-09-21T07:36:08;4.80;;;1.10;;
67063;SDS011;58476;48.072;11.970;2022-09-21T07:38:35;5.53;;;1.17;;
67063;SDS011;58476;48.072;11.970;2022-09-21T07:41:05;12.82;;;1.65;;
67063;SDS011;58476;48.072;11.970;2022-09-21T07:43:31;3.85;;;1.00;;
67063;SDS011;58476;48.072;11.970;2022-09-21T07:45:57;6.07;;;1.10;;
67063;SDS011;58476;48.072;11.970;2022-09-21T07:48:22;7.03;;;1.25;;
67063;SDS011;58476;48.072;11.970;2022-09-21T07:50:48;1.98;;;1.20;;
67063;SDS011;58476;48.072;11.970;2022-09-21T07:53:13;8.10;;;1.40;;
67063;SDS011;58476;48.072;11.970;2022-09-21T07:55:39;5.63;;;1.10;;
67063;SDS011;58476;48.072;11.970;2022-09-21T07:58:04;7.13;;;1.88;;
67063;SDS011;58476;48.072;11.970;2022-09-21T08:00:30;9.75;;;1.40;;
67063;SDS011;58476;48.072;11.970;2022-09-21T08:02:55;6.97;;;1.10;;
67063;SDS011;58476;48.072;11.970;2022-09-21T08:05:20;2.92;;;1.00;;
67063;SDS011;58476;48.072;11.970;2022-09-21T08:07:45;4.07;;;1.30;;
67063;SDS011;58476;48.072;11.970;2022-09-21T08:10:11;2.08;;;0.93;;
67063;SDS011;58476;48.072;11.970;2022-09-21T08:12:36;6.97;;;1.30;;
67063;SDS011;58476;48.072;11.970;2022-09-21T08:15:01;9.57;;;1.40;;
67063;SDS011;58476;48.072;11.970;2022-09-21T08:17:27;4.57;;;1.10;;
67063;SDS011;58476;48.072;11.970;2022-09-21T08:19:52;9.55;;;1.27;;
67063;SDS011;58476;48.072;11.970;2022-09-21T08:22:18;3.17;;;1.00;;
67063;SDS011;58476;48.072;11.970;2022-09-21T08:24:43;4.82;;;1.02;;
67063;SDS011;58476;48.072;11.970;2022-09-21T08:27:09;9.60;;;1.70;;
67063;SDS011;58476;48.072;11.970;2022-09-21T08:29:34;9.50;;;1.00;;
67063;SDS011;58476;48.072;11.970;2022-09-21T08:32:00;11.45;;;1.40;;
67063;SDS011;58476;48.072;11.970;2022-09-21T08:34:25;6.47;;;1.10;;
67063;SDS011;58476;48.072;11.970;2022-09-21T08:36:51;4.45;;;0.90;;
67063;SDS011;58476;48.072;11.970;2022-09-21T08:39:16;7.80;;;1.50;;
67063;SDS011;58476;48.072;11.970;2022-09-21T08:44:14;4.35;;;1.00;;
67063;SDS011;58476;48.072;11.970;2022-09-21T08:46:43;4.60;;;1.10;;
67063;SDS011;58476;48.072;11.970;2022-09-21T08:49:16;4.68;;;1.10;;
67063;SDS011;58476;48.072;11.970;2022-09-21T08:52:05;2.47;;;1.13;;
67063;SDS011;58476;48.072;11.970;2022-09-21T08:54:46;6.03;;;1.15;;
67063;SDS011;58476;48.072;11.970;2022-09-21T08:57:17;4.53;;;1.33;;
67063;SDS011;58476;48.072;11.970;2022-09-21T08:59:46;7.28;;;1.17;;
67063;SDS011;58476;48.072;11.970;2022-09-21T09:02:29;4.00;;;1.10;;
67063;SDS011;58476;48.072;11.970;2022-09-21T09:05:05;3.33;;;0.80;;
67063;SDS011;58476;48.072;11.970;2022-09-21T09:10:37;5.20;;;1.23;;
67063;SDS011;58476;48.072;11.970;2022-09-21T09:16:17;4.30;;;1.20;;
67063;SDS011;58476;48.072;11.970;2022-09-21T09:21:33;10.20;;;1.05;;
67063;SDS011;58476;48.072;11.970;2022-09-21T09:24:03;5.03;;;1.00;;
67063;SDS011;58476;48.072;11.970;2022-09-21T09:26:45;2.72;;;0.80;;
67063;SDS011;58476;48.072;11.970;2022-09-21T09:29:17;2.55;;;0.98;;
67063;SDS011;58476;48.072;11.970;2022-09-21T09:31:52;2.15;;;0.98;;
67063;SDS011;58476;48.072;11.970;2022-09-21T09:34:23;2.47;;;0.90;;
67063;SDS011;58476;48.072;11.970;2022-09-21T09:36:58;14.95;;;1.45;;
67063;SDS011;58476;48.072;11.970;2022-09-21T09:39:27;1.92;;;1.08;;
67063;SDS011;58476;48.072;11.970;2022-09-21T09:50:31;4.40;;;0.85;;
67063;SDS011;58476;48.072;11.970;2022-09-21T09:53:04;3.53;;;0.95;;
67063;SDS011;58476;48.072;11.970;2022-09-21T09:55:35;7.43;;;1.10;;
67063;SDS011;58476;48.072;11.970;2022-09-21T09:58:03;2.63;;;0.90;;
67063;SDS011;58476;48.072;11.970;2022-09-21T10:00:29;5.43;;;1.17;;
67063;SDS011;58476;48.072;11.970;2022-09-21T10:02:55;1.50;;;0.90;;
67063;SDS011;58476;48.072;11.970;2022-09-21T10:05:23;2.33;;;1.02;;
67063;SDS011;58476;48.072;11.970;2022-09-21T10:07:55;5.93;;;0.85;;
67063;SDS011;58476;48.072;11.970;2022-09-21T10:10:39;2.90;;;1.20;;
67063;SDS011;58476;48.072;11.970;2022-09-21T10:13:12;0.93;;;0.80;;
67063;SDS011;58476;48.072;11.970;2022-09-21T10:15:50;1.58;;;0.80;;
67063;SDS011;58476;48.072;11.970;2022-09-21T10:18:22;3.38;;;0.93;;
67063;SDS011;58476;48.072;11.970;2022-09-21T10:24:00;2.85;;;0.70;;
67063;SDS011;58476;48.072;11.970;2022-09-21T10:26:35;0.80;;;0.80;;
67063;SDS011;58476;48.072;11.970;2022-09-21T10:31:55;4.95;;;0.77;;
67063;SDS011;58476;48.072;11.970;2022-09-21T10:34:21;4.13;;;0.80;;
67063;SDS011;58476;48.072;11.970;2022-09-21T10:36:48;2.45;;;0.70;;
67063;SDS011;58476;48.072;11.970;2022-09-21T10:39:16;6.60;;;0.85;;
67063;SDS011;58476;48.072;11.970;2022-09-21T10:42:01;8.63;;;2.33;;
67063;SDS011;58476;48.072;11.970;2022-09-21T10:44:40;7.45;;;1.10;;
67063;SDS011;58476;48.072;11.970;2022-09-21T10:47:22;8.57;;;0.93;;
67063;SDS011;58476;48.072;11.970;2022-09-21T10:49:59;10.85;;;1.08;;
67063;SDS011;58476;48.072;11.970;2022-09-21T10:52:33;3.72;;;0.88;;
67063;SDS011;58476;48.072;11.970;2022-09-21T10:55:05;3.13;;;0.80;;
67063;SDS011;58476;48.072;11.970;2022-09-21T10:57:39;3.50;;;0.82;;
67063;SDS011;58476;48.072;11.970;2022-09-21T11:00:10;3.55;;;0.70;;
67063;SDS011;58476;48.072;11.970;2022-09-21T11:05:27;2.28;;;0.60;;
67063;SDS011;58476;48.072;11.970;2022-09-21T11:08:02;1.42;;;0.90;;
67063;SDS011;58476;48.072;11.970;2022-09-21T11:13:46;4.18;;;0.80;;
67063;SDS011;58476;48.072;11.970;2022-09-21T11:21:28;0.73;;;0.65;;
67063;SDS011;58476;48.072;11.970;2022-09-21T11:24:21;2.88;;;0.73;;
67063;SDS011;58476;48.072;11.970;2022-09-21T11:27:21;0.88;;;0.68;;
67063;SDS011;58476;48.072;11.970;2022-09-21T11:38:03;4.28;;;0.77;;
67063;SDS011;58476;48.072;11.970;2022-09-21T11:49:08;11.32;;;0.90;;
67063;SDS011;58476;48.072;11.970;2022-09-21T11:51:50;5.30;;;0.80;;
67063;SDS011;58476;48.072;11.970;2022-09-21T11:57:19;3.83;;;1.00;;
67063;SDS011;58476;48.072;11.970;2022-09-21T12:02:42;1.58;;;0.63;;
67063;SDS011;58476;48.072;11.970;2022-09-21T12:10:58;7.80;;;1.00;;
67063;SDS011;58476;48.072;11.970;2022-09-21T12:18:59;3.95;;;1.00;;
67063;SDS011;58476;48.072;11.970;2022-09-21T12:21:48;7.32;;;0.73;;
67063;SDS011;58476;48.072;11.970;2022-09-21T12:24:22;1.00;;;0.60;;
67063;SDS011;58476;48.072;11.970;2022-09-21T12:26:54;4.35;;;0.63;;
67063;SDS011;58476;48.072;11.970;2022-09-21T12:29:24;1.38;;;0.70;;
67063;SDS011;58476;48.072;11.970;2022-09-21T12:32:53;2.72;;;0.77;;
67063;SDS011;58476;48.072;11.970;2022-09-21T12:35:12;3.90;;;0.65;;
67063;SDS011;58476;48.072;11.970;2022-09-21T12:37:43;3.20;;;1.25;;
67063;SDS011;58476;48.072;11.970;2022-09-21T12:43:59;2.67;;;0.80;;
67063;SDS011;58476;48.072;11.970;2022-09-21T12:46:31;1.65;;;0.60;;
67063;SDS011;58476;48.072;11.970;2022-09-21T12:49:04;1.65;;;0.77;;
67063;SDS011;58476;48.072;11.970;2022-09-21T12:51:37;2.35;;;0.70;;
67063;SDS011;58476;48.072;11.970;2022-09-21T12:54:19;0.75;;;0.60;;
67063;SDS011;58476;48.072;11.970;2022-09-21T13:03:09;2.58;;;0.70;;
67063;SDS011;58476;48.072;11.970;2022-09-21T13:10:40;1.05;;;0.63;;
67063;SDS011;58476;48.072;11.970;2022-09-21T13:13:15;1.55;;;0.50;;
67063;SDS011;58476;48.072;11.970;2022-09-21T13:15:47;0.55;;;0.55;;
67063;SDS011;58476;48.072;11.970;2022-09-21T13:18:15;1.98;;;0.70;;
67063;SDS011;58476;48.072;11.970;2022-09-21T13:20:43;3.63;;;0.70;;
67063;SDS011;58476;48.072;11.970;2022-09-21T13:23:16;3.65;;;0.70;;
67063;SDS011;58476;48.072;11.970;2022-09-21T13:25:48;1.17;;;0.63;;
67063;SDS011;58476;48.072;11.970;2022-09-21T13:28:23;4.03;;;1.13;;
67063;SDS011;58476;48.072;11.970;2022-09-21T13:33:31;5.78;;;0.68;;
67063;SDS011;58476;48.072;11.970;2022-09-21T13:36:03;10.38;;;1.20;;
67063;SDS011;58476;48.072;11.970;2022-09-21T13:41:37;6.65;;;0.93;;
67063;SDS011;58476;48.072;11.970;2022-09-21T13:44:03;8.52;;;1.48;;
67063;SDS011;58476;48.072;11.970;2022-09-21T13:51:51;13.73;;;1.40;;
67063;SDS011;58476;48.072;11.970;2022-09-21T13:54:34;8.52;;;1.10;;
67063;SDS011;58476;48.072;11.970;2022-09-21T13:59:41;15.23;;;1.40;;
67063;SDS011;58476;48.072;11.970;2022-09-21T14:02:30;12.98;;;1.73;;
67063;SDS011;58476;48.072;11.970;2022-09-21T14:05:18;16.48;;;1.50;;
67063;SDS011;58476;48.072;11.970;2022-09-21T14:07:57;9.73;;;1.25;;
67063;SDS011;58476;48.072;11.970;2022-09-21T14:10:25;3.58;;;0.93;;
67063;SDS011;58476;48.072;11.970;2022-09-21T14:12:52;7.00;;;1.10;;
67063;SDS011;58476;48.072;11.970;2022-09-21T14:21:15;10.45;;;1.27;;
67063;SDS011;58476;48.072;11.970;2022-09-21T14:23:33;4.97;;;1.10;;
67063;SDS011;58476;48.072;11.970;2022-09-21T14:26:00;3.67;;;0.95;;
67063;SDS011;58476;48.072;11.970;2022-09-21T14:28:30;6.10;;;0.90;;
67063;SDS011;58476;48.072;11.970;2022-09-21T14:31:00;7.93;;;1.05;;
67063;SDS011;58476;48.072;11.970;2022-09-21T14:33:31;2.60;;;0.80;;
67063;SDS011;58476;48.072;11.970;2022-09-21T14:35:59;4.15;;;1.05;;
67063;SDS011;58476;48.072;11.970;2022-09-21T14:38:34;6.38;;;0.82;;
67063;SDS011;58476;48.072;11.970;2022-09-21T14:41:29;7.10;;;0.85;;
67063;SDS011;58476;48.072;11.970;2022-09-21T14:44:00;4.85;;;1.00;;
67063;SDS011;58476;48.072;11.970;2022-09-21T14:54:58;14.02;;;1.38;;
67063;SDS011;58476;48.072;11.970;2022-09-21T14:57:39;5.93;;;1.08;;
67063;SDS011;58476;48.072;11.970;2022-09-21T15:05:39;6.65;;;1.02;;
67063;SDS011;58476;48.072;11.970;2022-09-21T15:08:32;3.42;;;1.00;;
67063;SDS011;58476;48.072;11.970;2022-09-21T15:11:35;7.70;;;1.65;;
67063;SDS011;58476;48.072;11.970;2022-09-21T15:14:10;5.80;;;0.77;;
67063;SDS011;58476;48.072;11.970;2022-09-21T15:21:45;8.85;;;1.00;;
67063;SDS011;58476;48.072;11.970;2022-09-21T15:24:33;14.88;;;3.67;;
67063;SDS011;58476;48.072;11.970;2022-09-21T15:27:09;25.38;;;12.90;;
67063;SDS011;58476;48.072;11.970;2022-09-21T15:29:37;22.65;;;8.48;;
67063;SDS011;58476;48.072;11.970;2022-09-21T15:32:04;27.20;;;8.25;;
67063;SDS011;58476;48.072;11.970;2022-09-21T15:34:30;14.02;;;6.03;;
67063;SDS011;58476;48.072;11.970;2022-09-21T15:37:06;15.65;;;5.10;;
67063;SDS011;58476;48.072;11.970;2022-09-21T15:39:40;10.07;;;4.95;;
67063;SDS011;58476;48.072;11.970;2022-09-21T15:44:35;13.38;;;4.53;;
67063;SDS011;58476;48.072;11.970;2022-09-21T15:47:01;10.80;;;4.60;;
67063;SDS011;58476;48.072;11.970;2022-09-21T15:49:31;11.70;;;4.18;;
67063;SDS011;58476;48.072;11.970;2022-09-21T15:54:45;9.73;;;4.32;;
67063;SDS011;58476;48.072;11.970;2022-09-21T16:00:18;11.13;;;4.10;;
67063;SDS011;58476;48.072;11.970;2022-09-21T16:02:56;10.68;;;3.63;;
67063;SDS011;58476;48.072;11.970;2022-09-21T16:05:27;10.85;;;3.53;;
67063;SDS011;58476;48.072;11.970;2022-09-21T16:08:03;9.32;;;3.60;;
67063;SDS011;58476;48.072;11.970;2022-09-21T16:10:40;13.90;;;3.88;;
67063;SDS011;58476;48.072;11.970;2022-09-21T16:13:10;14.63;;;3.80;;
67063;SDS011;58476;48.072;11.970;2022-09-21T16:15:39;8.95;;;3.40;;
67063;SDS011;58476;48.072;11.970;2022-09-21T16:18:04;7.65;;;3.55;;
67063;SDS011;58476;48.072;11.970;2022-09-21T16:20:37;7.03;;;3.65;;
67063;SDS011;58476;48.072;11.970;2022-09-21T16:23:20;8.77;;;3.67;;
67063;SDS011;58476;48.072;11.970;2022-09-21T16:25:54;6.93;;;3.55;;
67063;SDS011;58476;48.072;11.970;2022-09-21T16:28:29;8.02;;;3.25;;
67063;SDS011;58476;48.072;11.970;2022-09-21T16:30:59;7.50;;;3.53;;
67063;SDS011;58476;48.072;11.970;2022-09-21T16:38:42;7.65;;;3.22;;
67063;SDS011;58476;48.072;11.970;2022-09-21T16:41:08;6.40;;;3.00;;
67063;SDS011;58476;48.072;11.970;2022-09-21T16:43:34;8.13;;;2.95;;
67063;SDS011;58476;48.072;11.970;2022-09-21T16:46:00;4.68;;;2.85;;
67063;SDS011;58476;48.072;11.970;2022-09-21T16:48:25;5.70;;;2.67;;
67063;SDS011;58476;48.072;11.970;2022-09-21T16:50:51;8.50;;;2.67;;
67063;SDS011;58476;48.072;11.970;2022-09-21T16:53:16;5.47;;;2.80;;
67063;SDS011;58476;48.072;11.970;2022-09-21T16:55:41;4.95;;;2.60;;
67063;SDS011;58476;48.072;11.970;2022-09-21T16:58:07;8.00;;;2.30;;
67063;SDS011;58476;48.072;11.970;2022-09-21T17:00:33;5.00;;;2.50;;
67063;SDS011;58476;48.072;11.970;2022-09-21T17:03:02;9.52;;;2.60;;
67063;SDS011;58476;48.072;11.970;2022-09-21T17:05:28;9.32;;;2.65;;
67063;SDS011;58476;48.072;11.970;2022-09-21T17:07:54;3.97;;;2.38;;
67063;SDS011;58476;48.072;11.970;2022-09-21T17:10:21;5.70;;;2.25;;
67063;SDS011;58476;48.072;11.970;2022-09-21T17:12:49;4.30;;;2.10;;
67063;SDS011;58476;48.072;11.970;2022-09-21T17:15:14;8.52;;;2.25;;
67063;SDS011;58476;48.072;11.970;2022-09-21T17:17:39;5.68;;;2.50;;
67063;SDS011;58476;48.072;11.970;2022-09-21T17:20:27;7.53;;;2.60;;
67063;SDS011;58476;48.072;11.970;2022-09-21T17:22:56;9.40;;;2.50;;
67063;SDS011;58476;48.072;11.970;2022-09-21T17:25:21;6.13;;;2.25;;
67063;SDS011;58476;48.072;11.970;2022-09-21T17:27:46;4.97;;;2.28;;
67063;SDS011;58476;48.072;11.970;2022-09-21T17:30:12;9.93;;;3.65;;
67063;SDS011;58476;48.072;11.970;2022-09-21T17:32:38;5.97;;;2.35;;
67063;SDS011;58476;48.072;11.970;2022-09-21T17:37:53;8.07;;;2.25;;
67063;SDS011;58476;48.072;11.970;2022-09-21T17:40:19;7.47;;;2.28;;
67063;SDS011;58476;48.072;11.970;2022-09-21T17:42:45;8.52;;;2.65;;
67063;SDS011;58476;48.072;11.970;2022-09-21T17:47:54;7.03;;;2.25;;
67063;SDS011;58476;48.072;11.970;2022-09-21T17:50:22;7.75;;;2.47;;
67063;SDS011;58476;48.072;11.970;2022-09-21T17:52:49;6.35;;;2.10;;
67063;SDS011;58476;48.072;11.970;2022-09-21T17:55:15;3.85;;;1.95;;
67063;SDS011;58476;48.072;11.970;2022-09-21T18:03:23;6.85;;;2.35;;
67063;SDS011;58476;48.072;11.970;2022-09-21T18:05:51;5.03;;;2.65;;
67063;SDS011;58476;48.072;11.970;2022-09-21T18:08:17;6.50;;;2.40;;
67063;SDS011;58476;48.072;11.970;2022-09-21T18:10:44;6.53;;;2.38;;